sensor_id;sensor_type;location;lat;lon;timestamp;pressure;altitude;pressure_sealevel;temperature;humidity
12775;BME280;6451;42.630;23.382;2022-12-13T00:00:41;93827.72;;;0.05;100.00
12775;BME280;6451;42.630;23.382;2022-12-13T00:03:10;93821.97;;;-0.02;100.00
12775;BME280;6451;42.630;23.382;2022-12-13T00:05:42;93828.69;;;-0.05;100.00
12775;BME280;6451;42.630;23.382;2022-12-13T00:08:09;93846.69;;;0.04;100.00
12775;BME280;6451;42.630;23.382;2022-12-13T00:10:36;93842.81;;;-0.04;100.00
12775;BME280;6451;42.630;23.382;2022-12-13T00:13:03;93833.09;;;-0.14;100.00
12775;BME280;6451;42.630;23.382;2022-12-13T00:15:32;93841.41;;;-0.15;100.00
12775;BME280;6451;42.630;23.382;2022-12-13T00:17:58;93857.66;;;-0.17;100.00
12775;BME280;6451;42.630;23.382;2022-12-13T00:20:27;93860.84;;;-0.15;100.00
12775;BME280;6451;42.630;23.382;2022-12-13T00:22:53;93854.16;;;-0.12;100.00
12775;BME280;6451;42.630;23.382;2022-12-13T00:25:21;93849.97;;;-0.18;100.00
12775;BME280;6451;42.630;23.382;2022-12-13T00:27:48;93874.63;;;-0.08;100.00
12775;BME280;6451;42.630;23.382;2022-12-13T00:30:14;93873.09;;;-0.14;100.00
12775;BME280;6451;42.630;23.382;2022-12-13T00:32:41;93840.69;;;-0.21;100.00
12775;BME280;6451;42.630;23.382;2022-12-13T00:35:08;93864.16;;;-0.04;100.00
12775;BME280;6451;42.630;23.382;2022-12-13T00:37:37;93858.75;;;-0.18;100.00
12775;BME280;6451;42.630;23.382;2022-12-13T00:40:06;93850.56;;;-0.21;100.00
12775;BME280;6451;42.630;23.382;2022-12-13T00:42:33;93819.19;;;-0.43;100.00
12775;BME280;6451;42.630;23.382;2022-12-13T00:45:00;93870.56;;;-0.24;100.00
12775;BME280;6451;42.630;23.382;2022-12-13T00:47:28;93856.63;;;-0.35;100.00
12775;BME280;6451;42.630;23.382;2022-12-13T00:49:56;93834.44;;;-0.49;100.00
12775;BME280;6451;42.630;23.382;2022-12-13T00:52:23;93824.16;;;-0.56;100.00
12775;BME280;6451;42.630;23.382;2022-12-13T00:54:51;93875.84;;;-0.19;100.00
12775;BME280;6451;42.630;23.382;2022-12-13T00:57:19;93864.25;;;-0.28;100.00
12775;BME280;6451;42.630;23.382;2022-12-13T00:59:47;93865.78;;;-0.22;100.00
12775;BME280;6451;42.630;23.382;2022-12-13T01:05:10;93870.50;;;-0.19;100.00
12775;BME280;6451;42.630;23.382;2022-12-13T01:07:38;93799.75;;;-0.63;100.00
12775;BME280;6451;42.630;23.382;2022-12-13T01:10:11;93873.66;;;-0.17;100.00
12775;BME280;6451;42.630;23.382;2022-12-13T01:12:42;93871.22;;;-0.13;100.00
12775;BME280;6451;42.630;23.382;2022-12-13T01:15:09;93876.19;;;-0.25;100.00
12775;BME280;6451;42.630;23.382;2022-12-13T01:17:36;93880.75;;;-0.26;100.00
12775;BME280;6451;42.630;23.382;2022-12-13T01:20:04;93868.59;;;-0.51;100.00
12775;BME280;6451;42.630;23.382;2022-12-13T01:22:31;93883.47;;;-0.31;100.00
12775;BME280;6451;42.630;23.382;2022-12-13T01:24:58;93870.38;;;-0.46;100.00
12775;BME280;6451;42.630;23.382;2022-12-13T01:27:26;93876.13;;;-0.39;100.00
12775;BME280;6451;42.630;23.382;2022-12-13T01:29:53;93886.97;;;-0.31;100.00
12775;BME280;6451;42.630;23.382;2022-12-13T01:32:20;93875.47;;;-0.31;100.00
12775;BME280;6451;42.630;23.382;2022-12-13T01:34:48;93874.03;;;-0.23;100.00
12775;BME280;6451;42.630;23.382;2022-12-13T01:37:15;93870.44;;;-0.33;100.00
12775;BME280;6451;42.630;23.382;2022-12-13T01:39:44;93812.50;;;-0.60;100.00
12775;BME280;6451;42.630;23.382;2022-12-13T01:42:13;93868.50;;;-0.27;100.00
12775;BME280;6451;42.630;23.382;2022-12-13T01:45:00;93878.66;;;-0.29;100.00
12775;BME280;6451;42.630;23.382;2022-12-13T01:47:30;93873.84;;;-0.27;100.00
12775;BME280;6451;42.630;23.382;2022-12-13T01:50:02;93864.97;;;-0.41;100.00
12775;BME280;6451;42.630;23.382;2022-12-13T01:52:31;93856.41;;;-0.57;100.00
12775;BME280;6451;42.630;23.382;2022-12-13T01:55:00;93862.59;;;-0.62;100.00
12775;BME280;6451;42.630;23.382;2022-12-13T01:57:30;93881.47;;;-0.58;100.00
12775;BME280;6451;42.630;23.382;2022-12-13T02:00:00;93854.81;;;-0.77;100.00
12775;BME280;6451;42.630;23.382;2022-12-13T02:02:27;93870.53;;;-0.75;100.00
12775;BME280;6451;42.630;23.382;2022-12-13T02:05:03;93666.31;;;-2.17;100.00
12775;BME280;6451;42.630;23.382;2022-12-13T02:07:33;93888.94;;;-0.79;100.00
12775;BME280;6451;42.630;23.382;2022-12-13T02:10:05;93881.03;;;-0.84;100.00
12775;BME280;6451;42.630;23.382;2022-12-13T02:12:34;93882.25;;;-0.76;100.00
12775;BME280;6451;42.630;23.382;2022-12-13T02:15:06;93882.81;;;-0.79;100.00
12775;BME280;6451;42.630;23.382;2022-12-13T02:17:47;93872.59;;;-0.72;100.00
12775;BME280;6451;42.630;23.382;2022-12-13T02:20:42;93876.69;;;-0.80;100.00
12775;BME280;6451;42.630;23.382;2022-12-13T02:23:28;93877.28;;;-0.83;100.00
12775;BME280;6451;42.630;23.382;2022-12-13T02:26:11;93866.69;;;-0.88;100.00
12775;BME280;6451;42.630;23.382;2022-12-13T02:28:53;93863.00;;;-0.92;100.00
12775;BME280;6451;42.630;23.382;2022-12-13T02:31:30;93871.50;;;-0.90;100.00
12775;BME280;6451;42.630;23.382;2022-12-13T02:34:02;93868.41;;;-0.78;100.00
12775;BME280;6451;42.630;23.382;2022-12-13T02:36:36;93888.94;;;-0.79;100.00
12775;BME280;6451;42.630;23.382;2022-12-13T02:39:09;93888.00;;;-0.69;100.00
12775;BME280;6451;42.630;23.382;2022-12-13T02:41:40;93897.94;;;-0.75;100.00
12775;BME280;6451;42.630;23.382;2022-12-13T02:44:11;93892.09;;;-0.77;100.00
12775;BME280;6451;42.630;23.382;2022-12-13T02:46:47;93772.88;;;-1.42;100.00
12775;BME280;6451;42.630;23.382;2022-12-13T02:49:18;93892.09;;;-0.77;100.00
12775;BME280;6451;42.630;23.382;2022-12-13T02:51:46;93883.06;;;-0.76;100.00
12775;BME280;6451;42.630;23.382;2022-12-13T02:54:13;93895.16;;;-0.65;100.00
12775;BME280;6451;42.630;23.382;2022-12-13T02:56:40;93892.53;;;-0.70;100.00
12775;BME280;6451;42.630;23.382;2022-12-13T02:59:11;93872.84;;;-0.93;100.00
12775;BME280;6451;42.630;23.382;2022-12-13T03:01:48;93868.41;;;-0.97;100.00
12775;BME280;6451;42.630;23.382;2022-12-13T03:04:27;93902.84;;;-0.82;100.00
12775;BME280;6451;42.630;23.382;2022-12-13T03:07:03;93905.34;;;-0.72;100.00
12775;BME280;6451;42.630;23.382;2022-12-13T03:09:41;93834.34;;;-1.43;100.00
12775;BME280;6451;42.630;23.382;2022-12-13T03:12:18;93909.41;;;-0.74;100.00
12775;BME280;6451;42.630;23.382;2022-12-13T03:15:13;93833.09;;;-1.27;100.00
12775;BME280;6451;42.630;23.382;2022-12-13T03:17:46;93909.75;;;-0.81;100.00
12775;BME280;6451;42.630;23.382;2022-12-13T03:20:17;93906.75;;;-0.98;100.00
12775;BME280;6451;42.630;23.382;2022-12-13T03:22:48;93907.03;;;-1.00;100.00
12775;BME280;6451;42.630;23.382;2022-12-13T03:25:15;93900.47;;;-1.07;100.00
12775;BME280;6451;42.630;23.382;2022-12-13T03:27:42;93857.63;;;-1.30;100.00
12775;BME280;6451;42.630;23.382;2022-12-13T03:30:10;93885.81;;;-1.05;100.00
12775;BME280;6451;42.630;23.382;2022-12-13T03:32:37;93902.22;;;-0.98;100.00
12775;BME280;6451;42.630;23.382;2022-12-13T03:35:07;93887.28;;;-1.18;100.00
12775;BME280;6451;42.630;23.382;2022-12-13T03:37:34;93891.41;;;-1.06;100.00
12775;BME280;6451;42.630;23.382;2022-12-13T03:40:01;93888.56;;;-1.15;100.00
12775;BME280;6451;42.630;23.382;2022-12-13T03:42:28;93901.53;;;-1.08;100.00
12775;BME280;6451;42.630;23.382;2022-12-13T03:44:55;93875.88;;;-1.23;100.00
12775;BME280;6451;42.630;23.382;2022-12-13T03:47:22;93900.81;;;-1.14;100.00
12775;BME280;6451;42.630;23.382;2022-12-13T03:49:49;93901.50;;;-1.27;100.00
12775;BME280;6451;42.630;23.382;2022-12-13T03:52:17;93911.81;;;-1.21;100.00
12775;BME280;6451;42.630;23.382;2022-12-13T03:54:45;93914.75;;;-1.22;100.00
12775;BME280;6451;42.630;23.382;2022-12-13T03:57:14;93912.53;;;-1.15;100.00
12775;BME280;6451;42.630;23.382;2022-12-13T03:59:41;93918.47;;;-1.23;100.00
12775;BME280;6451;42.630;23.382;2022-12-13T04:02:08;93885.88;;;-1.34;100.00
12775;BME280;6451;42.630;23.382;2022-12-13T04:04:35;93923.25;;;-1.20;100.00
12775;BME280;6451;42.630;23.382;2022-12-13T04:07:03;93913.16;;;-1.23;100.00
12775;BME280;6451;42.630;23.382;2022-12-13T04:09:31;93918.69;;;-1.44;100.00
12775;BME280;6451;42.630;23.382;2022-12-13T04:11:58;93919.88;;;-1.31;100.00
12775;BME280;6451;42.630;23.382;2022-12-13T04:14:44;93927.69;;;-1.40;100.00
12775;BME280;6451;42.630;23.382;2022-12-13T04:17:11;93898.84;;;-1.56;100.00
12775;BME280;6451;42.630;23.382;2022-12-13T04:19:37;93933.75;;;-1.34;100.00
12775;BME280;6451;42.630;23.382;2022-12-13T04:22:04;93932.22;;;-1.40;100.00
12775;BME280;6451;42.630;23.382;2022-12-13T04:24:33;93944.19;;;-1.37;100.00
12775;BME280;6451;42.630;23.382;2022-12-13T04:27:00;93956.44;;;-1.42;100.00
12775;BME280;6451;42.630;23.382;2022-12-13T04:29:27;93927.47;;;-1.72;100.00
12775;BME280;6451;42.630;23.382;2022-12-13T04:31:54;93974.69;;;-1.59;100.00
12775;BME280;6451;42.630;23.382;2022-12-13T04:34:21;93960.94;;;-1.66;100.00
12775;BME280;6451;42.630;23.382;2022-12-13T04:36:48;93951.22;;;-1.81;100.00
12775;BME280;6451;42.630;23.382;2022-12-13T04:39:15;93974.03;;;-1.75;100.00
12775;BME280;6451;42.630;23.382;2022-12-13T04:41:43;93984.59;;;-1.64;100.00
12775;BME280;6451;42.630;23.382;2022-12-13T04:44:10;93982.75;;;-1.69;100.00
12775;BME280;6451;42.630;23.382;2022-12-13T04:46:37;93979.47;;;-1.90;100.00
12775;BME280;6451;42.630;23.382;2022-12-13T04:49:04;93978.31;;;-1.79;100.00
12775;BME280;6451;42.630;23.382;2022-12-13T04:51:31;93972.41;;;-2.10;100.00
12775;BME280;6451;42.630;23.382;2022-12-13T04:53:58;93997.34;;;-2.01;100.00
12775;BME280;6451;42.630;23.382;2022-12-13T04:56:25;93996.09;;;-2.13;100.00
12775;BME280;6451;42.630;23.382;2022-12-13T04:58:54;93999.56;;;-2.18;100.00
12775;BME280;6451;42.630;23.382;2022-12-13T05:01:21;93999.06;;;-2.20;100.00
12775;BME280;6451;42.630;23.382;2022-12-13T05:03:47;94001.91;;;-2.06;100.00
12775;BME280;6451;42.630;23.382;2022-12-13T05:06:14;94003.31;;;-2.19;100.00
12775;BME280;6451;42.630;23.382;2022-12-13T05:08:41;93990.88;;;-2.29;100.00
12775;BME280;6451;42.630;23.382;2022-12-13T05:11:09;93951.69;;;-2.52;100.00
12775;BME280;6451;42.630;23.382;2022-12-13T05:13:37;93920.44;;;-2.70;100.00
12775;BME280;6451;42.630;23.382;2022-12-13T05:16:08;94003.88;;;-2.22;100.00
12775;BME280;6451;42.630;23.382;2022-12-13T05:18:35;93972.38;;;-2.44;100.00
12775;BME280;6451;42.630;23.382;2022-12-13T05:21:03;93986.63;;;-2.30;100.00
12775;BME280;6451;42.630;23.382;2022-12-13T05:23:30;94007.53;;;-2.13;100.00
12775;BME280;6451;42.630;23.382;2022-12-13T05:25:57;94015.72;;;-2.09;100.00
12775;BME280;6451;42.630;23.382;2022-12-13T05:28:25;94008.28;;;-2.07;100.00
12775;BME280;6451;42.630;23.382;2022-12-13T05:30:53;94021.81;;;-1.99;100.00
12775;BME280;6451;42.630;23.382;2022-12-13T05:33:22;94005.56;;;-1.97;100.00
12775;BME280;6451;42.630;23.382;2022-12-13T05:35:50;94005.28;;;-1.96;100.00
12775;BME280;6451;42.630;23.382;2022-12-13T05:38:17;93995.56;;;-2.15;100.00
12775;BME280;6451;42.630;23.382;2022-12-13T05:40:44;94021.06;;;-2.09;100.00
12775;BME280;6451;42.630;23.382;2022-12-13T05:45:50;94005.19;;;-2.25;100.00
12775;BME280;6451;42.630;23.382;2022-12-13T05:48:25;94022.91;;;-2.05;100.00
12775;BME280;6451;42.630;23.382;2022-12-13T05:50:56;94040.72;;;-2.10;100.00
12775;BME280;6451;42.630;23.382;2022-12-13T05:53:23;94038.06;;;-2.05;100.00
12775;BME280;6451;42.630;23.382;2022-12-13T05:55:51;94021.34;;;-2.16;100.00
12775;BME280;6451;42.630;23.382;2022-12-13T05:58:18;93996.44;;;-2.30;100.00
12775;BME280;6451;42.630;23.382;2022-12-13T06:00:45;94038.84;;;-2.05;100.00
12775;BME280;6451;42.630;23.382;2022-12-13T06:03:12;94039.25;;;-1.87;100.00
12775;BME280;6451;42.630;23.382;2022-12-13T06:05:40;94036.69;;;-2.03;100.00
12775;BME280;6451;42.630;23.382;2022-12-13T06:08:08;94034.84;;;-2.02;100.00
12775;BME280;6451;42.630;23.382;2022-12-13T06:10:36;94030.41;;;-2.17;100.00
12775;BME280;6451;42.630;23.382;2022-12-13T06:13:03;94039.91;;;-2.06;100.00
12775;BME280;6451;42.630;23.382;2022-12-13T06:15:31;94039.13;;;-2.11;100.00
12775;BME280;6451;42.630;23.382;2022-12-13T06:17:58;94048.13;;;-2.02;100.00
12775;BME280;6451;42.630;23.382;2022-12-13T06:20:25;94052.41;;;-2.06;100.00
12775;BME280;6451;42.630;23.382;2022-12-13T06:22:54;94016.81;;;-2.15;100.00
12775;BME280;6451;42.630;23.382;2022-12-13T06:25:21;94046.47;;;-1.93;100.00
12775;BME280;6451;42.630;23.382;2022-12-13T06:27:48;94052.81;;;-1.84;100.00
12775;BME280;6451;42.630;23.382;2022-12-13T06:30:15;94039.19;;;-1.77;100.00
12775;BME280;6451;42.630;23.382;2022-12-13T06:32:42;94035.53;;;-1.86;100.00
12775;BME280;6451;42.630;23.382;2022-12-13T06:35:08;94049.00;;;-1.73;100.00
12775;BME280;6451;42.630;23.382;2022-12-13T06:37:36;94057.47;;;-1.65;100.00
12775;BME280;6451;42.630;23.382;2022-12-13T06:40:05;94060.03;;;-1.50;100.00
12775;BME280;6451;42.630;23.382;2022-12-13T06:42:33;94064.06;;;-1.58;100.00
12775;BME280;6451;42.630;23.382;2022-12-13T06:44:59;94022.41;;;-2.12;100.00
12775;BME280;6451;42.630;23.382;2022-12-13T06:47:26;94068.13;;;-1.71;100.00
12775;BME280;6451;42.630;23.382;2022-12-13T06:49:53;94067.56;;;-1.62;100.00
12775;BME280;6451;42.630;23.382;2022-12-13T06:52:21;94067.59;;;-1.33;100.00
12775;BME280;6451;42.630;23.382;2022-12-13T06:54:48;94069.16;;;-1.27;100.00
12775;BME280;6451;42.630;23.382;2022-12-13T06:57:16;94011.38;;;-1.56;100.00
12775;BME280;6451;42.630;23.382;2022-12-13T06:59:43;94055.25;;;-1.19;100.00
12775;BME280;6451;42.630;23.382;2022-12-13T07:02:11;93951.31;;;-1.96;100.00
12775;BME280;6451;42.630;23.382;2022-12-13T07:04:38;94071.47;;;-1.50;100.00
12775;BME280;6451;42.630;23.382;2022-12-13T07:07:04;94070.75;;;-1.60;100.00
12775;BME280;6451;42.630;23.382;2022-12-13T07:09:32;94063.06;;;-1.67;100.00
12775;BME280;6451;42.630;23.382;2022-12-13T07:11:59;94081.91;;;-1.63;100.00
12775;BME280;6451;42.630;23.382;2022-12-13T07:14:27;94083.25;;;-1.61;100.00
12775;BME280;6451;42.630;23.382;2022-12-13T07:16:54;94039.53;;;-1.89;100.00
12775;BME280;6451;42.630;23.382;2022-12-13T07:19:21;94088.53;;;-1.56;100.00
12775;BME280;6451;42.630;23.382;2022-12-13T07:21:48;94089.28;;;-1.50;100.00
12775;BME280;6451;42.630;23.382;2022-12-13T07:24:15;94093.53;;;-1.49;100.00
12775;BME280;6451;42.630;23.382;2022-12-13T07:26:42;94094.41;;;-1.59;100.00
12775;BME280;6451;42.630;23.382;2022-12-13T07:29:09;94095.72;;;-1.61;100.00
12775;BME280;6451;42.630;23.382;2022-12-13T07:31:37;94103.09;;;-1.43;100.00
12775;BME280;6451;42.630;23.382;2022-12-13T07:34:04;94114.06;;;-1.55;100.00
12775;BME280;6451;42.630;23.382;2022-12-13T07:36:31;94067.31;;;-1.66;100.00
12775;BME280;6451;42.630;23.382;2022-12-13T07:38:58;94076.47;;;-1.43;100.00
12775;BME280;6451;42.630;23.382;2022-12-13T07:41:25;94083.09;;;-1.41;100.00
12775;BME280;6451;42.630;23.382;2022-12-13T07:43:52;94101.09;;;-1.27;100.00
12775;BME280;6451;42.630;23.382;2022-12-13T07:46:23;94098.25;;;-1.41;100.00
12775;BME280;6451;42.630;23.382;2022-12-13T07:48:52;94106.53;;;-1.43;100.00
12775;BME280;6451;42.630;23.382;2022-12-13T07:51:19;94101.13;;;-1.32;100.00
12775;BME280;6451;42.630;23.382;2022-12-13T07:53:46;94108.56;;;-1.29;100.00
12775;BME280;6451;42.630;23.382;2022-12-13T07:56:12;94106.03;;;-1.10;100.00
12775;BME280;6451;42.630;23.382;2022-12-13T07:58:41;94109.00;;;-0.83;100.00
12775;BME280;6451;42.630;23.382;2022-12-13T08:01:10;94113.53;;;-0.83;100.00
12775;BME280;6451;42.630;23.382;2022-12-13T08:03:37;94115.25;;;-0.98;100.00
12775;BME280;6451;42.630;23.382;2022-12-13T08:06:07;94118.97;;;-0.99;100.00
12775;BME280;6451;42.630;23.382;2022-12-13T08:08:35;94099.47;;;-1.23;100.00
12775;BME280;6451;42.630;23.382;2022-12-13T08:11:03;94120.97;;;-0.86;100.00
12775;BME280;6451;42.630;23.382;2022-12-13T08:13:31;94128.94;;;-0.80;100.00
12775;BME280;6451;42.630;23.382;2022-12-13T08:15:58;94126.47;;;-0.72;100.00
12775;BME280;6451;42.630;23.382;2022-12-13T08:18:26;94129.25;;;-0.58;100.00
12775;BME280;6451;42.630;23.382;2022-12-13T08:20:57;94099.91;;;-1.11;100.00
12775;BME280;6451;42.630;23.382;2022-12-13T08:23:26;94127.38;;;-0.87;100.00
12775;BME280;6451;42.630;23.382;2022-12-13T08:25:53;94126.28;;;-0.80;100.00
12775;BME280;6451;42.630;23.382;2022-12-13T08:28:23;94139.31;;;-0.79;100.00
12775;BME280;6451;42.630;23.382;2022-12-13T08:30:51;94123.84;;;-1.06;100.00
12775;BME280;6451;42.630;23.382;2022-12-13T08:33:20;94093.41;;;-1.29;100.00
12775;BME280;6451;42.630;23.382;2022-12-13T08:35:48;94115.47;;;-0.94;100.00
12775;BME280;6451;42.630;23.382;2022-12-13T08:38:15;94114.31;;;-0.83;100.00
12775;BME280;6451;42.630;23.382;2022-12-13T08:40:43;94118.06;;;-0.84;100.00
12775;BME280;6451;42.630;23.382;2022-12-13T08:43:10;94114.44;;;-0.69;100.00
12775;BME280;6451;42.630;23.382;2022-12-13T08:45:37;94092.88;;;-0.68;100.00
12775;BME280;6451;42.630;23.382;2022-12-13T08:48:04;94106.41;;;-0.40;100.00
12775;BME280;6451;42.630;23.382;2022-12-13T08:50:31;94107.91;;;-0.29;100.00
12775;BME280;6451;42.630;23.382;2022-12-13T08:52:58;94101.63;;;-0.38;100.00
12775;BME280;6451;42.630;23.382;2022-12-13T08:55:25;94095.50;;;-0.15;100.00
12775;BME280;6451;42.630;23.382;2022-12-13T08:57:53;94081.59;;;-0.36;100.00
12775;BME280;6451;42.630;23.382;2022-12-13T09:00:20;94060.94;;;-0.49;100.00
12775;BME280;6451;42.630;23.382;2022-12-13T09:02:47;94097.00;;;-0.33;100.00
12775;BME280;6451;42.630;23.382;2022-12-13T09:05:15;94069.88;;;-0.16;100.00
12775;BME280;6451;42.630;23.382;2022-12-13T09:07:43;94080.75;;;0.12;100.00
12775;BME280;6451;42.630;23.382;2022-12-13T09:10:10;94055.16;;;-0.32;100.00
12775;BME280;6451;42.630;23.382;2022-12-13T09:12:40;94022.03;;;-0.69;100.00
12775;BME280;6451;42.630;23.382;2022-12-13T09:15:10;94053.47;;;-0.04;100.00
12775;BME280;6451;42.630;23.382;2022-12-13T09:17:37;94079.09;;;0.16;100.00
12775;BME280;6451;42.630;23.382;2022-12-13T09:20:06;94074.66;;;-0.13;100.00
12775;BME280;6451;42.630;23.382;2022-12-13T09:22:34;94073.28;;;-0.10;100.00
12775;BME280;6451;42.630;23.382;2022-12-13T09:25:01;94070.56;;;0.14;100.00
12775;BME280;6451;42.630;23.382;2022-12-13T09:27:29;94055.06;;;-0.03;100.00
12775;BME280;6451;42.630;23.382;2022-12-13T09:30:02;94045.41;;;0.20;100.00
12775;BME280;6451;42.630;23.382;2022-12-13T09:32:31;94065.63;;;0.26;100.00
12775;BME280;6451;42.630;23.382;2022-12-13T09:34:58;94033.97;;;0.19;100.00
12775;BME280;6451;42.630;23.382;2022-12-13T09:37:25;94055.78;;;0.59;100.00
12775;BME280;6451;42.630;23.382;2022-12-13T09:39:52;94038.66;;;0.46;100.00
12775;BME280;6451;42.630;23.382;2022-12-13T09:42:21;94061.13;;;0.78;100.00
12775;BME280;6451;42.630;23.382;2022-12-13T09:44:51;94052.56;;;0.62;100.00
12775;BME280;6451;42.630;23.382;2022-12-13T09:47:28;93996.19;;;0.31;100.00
12775;BME280;6451;42.630;23.382;2022-12-13T09:49:58;94000.00;;;0.06;100.00
12775;BME280;6451;42.630;23.382;2022-12-13T09:52:28;94046.06;;;0.12;100.00
12775;BME280;6451;42.630;23.382;2022-12-13T09:54:58;94042.66;;;0.06;100.00
12775;BME280;6451;42.630;23.382;2022-12-13T09:57:27;94046.34;;;0.29;100.00
12775;BME280;6451;42.630;23.382;2022-12-13T09:59:54;94041.94;;;0.38;100.00
12775;BME280;6451;42.630;23.382;2022-12-13T10:02:24;94045.56;;;0.28;100.00
12775;BME280;6451;42.630;23.382;2022-12-13T10:04:54;93941.19;;;-0.40;100.00
12775;BME280;6451;42.630;23.382;2022-12-13T10:07:24;94038.41;;;0.05;100.00
12775;BME280;6451;42.630;23.382;2022-12-13T10:09:58;94037.69;;;-0.01;100.00
12775;BME280;6451;42.630;23.382;2022-12-13T10:12:27;94037.69;;;-0.01;100.00
12775;BME280;6451;42.630;23.382;2022-12-13T10:14:58;94033.38;;;-0.15;100.00
12775;BME280;6451;42.630;23.382;2022-12-13T10:17:30;93958.44;;;-0.57;100.00
12775;BME280;6451;42.630;23.382;2022-12-13T10:19:58;94028.25;;;-0.12;100.00
12775;BME280;6451;42.630;23.382;2022-12-13T10:22:26;94021.28;;;-0.08;100.00
12775;BME280;6451;42.630;23.382;2022-12-13T10:24:55;94018.03;;;-0.05;100.00
12775;BME280;6451;42.630;23.382;2022-12-13T10:27:27;93983.75;;;-0.35;100.00
12775;BME280;6451;42.630;23.382;2022-12-13T10:30:00;93989.41;;;-0.18;100.00
12775;BME280;6451;42.630;23.382;2022-12-13T10:32:29;94015.41;;;-0.10;100.00
12775;BME280;6451;42.630;23.382;2022-12-13T10:34:58;93979.59;;;-0.04;100.00
12775;BME280;6451;42.630;23.382;2022-12-13T10:37:29;93941.69;;;-0.19;100.00
12775;BME280;6451;42.630;23.382;2022-12-13T10:39:56;93979.78;;;0.38;100.00
12775;BME280;6451;42.630;23.382;2022-12-13T10:42:24;93981.63;;;0.56;100.00
12775;BME280;6451;42.630;23.382;2022-12-13T10:45:14;93981.94;;;0.68;100.00
12775;BME280;6451;42.630;23.382;2022-12-13T10:47:42;93964.47;;;0.62;100.00
12775;BME280;6451;42.630;23.382;2022-12-13T10:52:52;93966.81;;;1.10;100.00
12775;BME280;6451;42.630;23.382;2022-12-13T10:55:27;93953.44;;;0.96;100.00
12775;BME280;6451;42.630;23.382;2022-12-13T10:57:58;93952.53;;;0.87;100.00
12775;BME280;6451;42.630;23.382;2022-12-13T11:00:34;93926.47;;;0.65;100.00
12775;BME280;6451;42.630;23.382;2022-12-13T11:03:03;93967.19;;;1.03;100.00
12775;BME280;6451;42.630;23.382;2022-12-13T11:05:32;93951.88;;;1.23;100.00
12775;BME280;6451;42.630;23.382;2022-12-13T11:08:13;93956.59;;;1.12;100.00
12775;BME280;6451;42.630;23.382;2022-12-13T11:10:41;93946.19;;;0.83;100.00
12775;BME280;6451;42.630;23.382;2022-12-13T11:13:22;93809.84;;;-0.27;100.00
12775;BME280;6451;42.630;23.382;2022-12-13T11:15:53;93942.19;;;0.67;100.00
12775;BME280;6451;42.630;23.382;2022-12-13T11:18:24;93954.47;;;0.68;100.00
12775;BME280;6451;42.630;23.382;2022-12-13T11:20:55;93936.41;;;0.78;100.00
12775;BME280;6451;42.630;23.382;2022-12-13T11:23:28;93906.00;;;0.61;100.00
12775;BME280;6451;42.630;23.382;2022-12-13T11:25:59;93923.63;;;0.62;100.00
12775;BME280;6451;42.630;23.382;2022-12-13T11:28:41;93901.72;;;0.46;100.00
12775;BME280;6451;42.630;23.382;2022-12-13T11:31:22;93852.84;;;0.18;100.00
12775;BME280;6451;42.630;23.382;2022-12-13T11:33:58;93936.03;;;0.85;100.00
12775;BME280;6451;42.630;23.382;2022-12-13T11:36:37;93861.38;;;0.34;100.00
12775;BME280;6451;42.630;23.382;2022-12-13T11:39:16;93941.53;;;0.75;100.00
12775;BME280;6451;42.630;23.382;2022-12-13T11:41:50;93923.69;;;0.57;100.00
12775;BME280;6451;42.630;23.382;2022-12-13T11:44:26;93955.47;;;0.72;100.00
12775;BME280;6451;42.630;23.382;2022-12-13T11:46:56;93954.38;;;0.73;100.00
12775;BME280;6451;42.630;23.382;2022-12-13T11:49:32;93937.84;;;0.57;100.00
12775;BME280;6451;42.630;23.382;2022-12-13T11:52:05;93923.09;;;0.60;100.00
12775;BME280;6451;42.630;23.382;2022-12-13T11:54:45;93918.38;;;0.57;100.00
12775;BME280;6451;42.630;23.382;2022-12-13T11:57:18;93941.16;;;0.81;100.00
12775;BME280;6451;42.630;23.382;2022-12-13T11:59:56;93899.56;;;0.48;100.00
12775;BME280;6451;42.630;23.382;2022-12-13T12:02:29;93932.56;;;0.98;100.00
12775;BME280;6451;42.630;23.382;2022-12-13T12:05:04;93905.34;;;0.96;100.00
12775;BME280;6451;42.630;23.382;2022-12-13T12:07:35;93908.13;;;0.77;100.00
12775;BME280;6451;42.630;23.382;2022-12-13T12:10:16;93930.38;;;1.14;100.00
12775;BME280;6451;42.630;23.382;2022-12-13T12:12:54;93896.72;;;0.99;100.00
12775;BME280;6451;42.630;23.382;2022-12-13T12:15:25;93821.09;;;0.49;100.00
12775;BME280;6451;42.630;23.382;2022-12-13T12:17:54;93884.75;;;0.83;100.00
12775;BME280;6451;42.630;23.382;2022-12-13T12:20:38;93928.72;;;1.18;100.00
12775;BME280;6451;42.630;23.382;2022-12-13T12:23:16;93899.53;;;1.08;100.00
12775;BME280;6451;42.630;23.382;2022-12-13T12:25:54;93927.94;;;1.31;100.00
12775;BME280;6451;42.630;23.382;2022-12-13T12:28:38;93906.06;;;1.16;100.00
12775;BME280;6451;42.630;23.382;2022-12-13T12:31:13;93929.59;;;1.41;100.00
12775;BME280;6451;42.630;23.382;2022-12-13T12:33:53;93810.03;;;0.69;100.00
12775;BME280;6451;42.630;23.382;2022-12-13T12:36:37;93932.88;;;1.24;100.00
12775;BME280;6451;42.630;23.382;2022-12-13T12:39:32;93925.75;;;1.33;100.00
12775;BME280;6451;42.630;23.382;2022-12-13T12:42:23;93903.56;;;1.19;100.00
12775;BME280;6451;42.630;23.382;2022-12-13T12:45:03;93934.63;;;1.43;100.00
12775;BME280;6451;42.630;23.382;2022-12-13T12:47:44;93931.47;;;1.41;100.00
12775;BME280;6451;42.630;23.382;2022-12-13T12:50:21;93916.94;;;1.33;100.00
12775;BME280;6451;42.630;23.382;2022-12-13T12:52:58;93940.06;;;1.37;100.00
12775;BME280;6451;42.630;23.382;2022-12-13T12:55:36;93947.69;;;1.44;100.00
12775;BME280;6451;42.630;23.382;2022-12-13T12:58:14;93956.22;;;1.46;100.00
12775;BME280;6451;42.630;23.382;2022-12-13T13:00:53;93956.91;;;1.38;100.00
12775;BME280;6451;42.630;23.382;2022-12-13T13:03:23;93943.53;;;1.38;100.00
12775;BME280;6451;42.630;23.382;2022-12-13T13:05:57;93959.78;;;1.42;100.00
12775;BME280;6451;42.630;23.382;2022-12-13T13:08:29;93963.25;;;1.42;100.00
12775;BME280;6451;42.630;23.382;2022-12-13T13:10:58;93956.53;;;1.31;100.00
12775;BME280;6451;42.630;23.382;2022-12-13T13:13:36;93968.19;;;1.49;100.00
12775;BME280;6451;42.630;23.382;2022-12-13T13:16:28;93981.78;;;1.38;100.00